Time;durP1;ratioP1;P1;durP2;ratioP2;P2;SDS_P1;SDS_P2;PMS_P1;PMS_P2;Temp;Humidity;BMP_temperature;BMP_pressure;BME280_temperature;BME280_humidity;BME280_pressure;Samples;Min_cycle;Max_cycle;Signal;HPM_P1;HPM_P2
2021/01/26 00:01:05;;;;;;;18.88;10.10;;;;;;;0.40;76.55;96957.44;4917713;29;20150;-81
2021/01/26 00:03:31;;;;;;;21.65;9.55;;;;;;;0.44;76.39;96955.28;4888046;29;20049;-81
2021/01/26 00:05:57;;;;;;;19.15;8.50;;;;;;;0.45;75.88;96954.31;4882247;29;20100;-81
2021/01/26 00:08:22;;;;;;;21.25;9.57;;;;;;;0.32;76.98;96955.00;4883910;29;20029;-81
2021/01/26 00:10:49;;;;;;;20.65;9.23;;;;;;;0.43;76.54;96969.88;4881241;29;20544;-81
2021/01/26 00:13:16;;;;;;;21.92;10.10;;;;;;;0.44;76.69;96963.75;4876978;29;20040;-81
2021/01/26 00:15:42;;;;;;;23.75;10.15;;;;;;;0.26;76.80;96959.09;4892080;29;20388;-81
2021/01/26 00:18:08;;;;;;;22.40;10.07;;;;;;;0.25;76.96;96964.38;4898790;29;20468;-81
2021/01/26 00:20:35;;;;;;;24.33;10.18;;;;;;;0.30;77.13;96967.19;4877161;29;20064;-81
2021/01/26 00:23:00;;;;;;;21.10;9.57;;;;;;;0.33;76.40;96967.59;4860389;29;20472;-80
2021/01/26 00:25:33;;;;;;;21.42;9.68;;;;;;;0.29;76.40;96973.28;4878286;29;20503;-81
2021/01/26 00:28:00;;;;;;;20.67;9.90;;;;;;;0.35;76.68;96975.13;4876085;29;20542;-81
2021/01/26 00:30:29;;;;;;;19.67;10.30;;;;;;;0.23;77.00;96967.13;4881623;29;20101;-82
2021/01/26 00:32:55;;;;;;;24.98;10.23;;;;;;;0.26;76.98;96961.66;4875713;29;20044;-82
2021/01/26 00:35:23;;;;;;;29.15;11.95;;;;;;;0.27;77.34;96972.66;4875455;29;20084;-82
2021/01/26 00:37:49;;;;;;;24.55;11.00;;;;;;;0.15;77.81;96970.59;4876025;29;20080;-82
2021/01/26 00:40:16;;;;;;;25.70;11.20;;;;;;;0.11;78.35;96966.03;4875594;29;20498;-81
2021/01/26 00:42:43;;;;;;;24.52;10.55;;;;;;;0.24;77.30;96973.03;4875084;29;20483;-82
2021/01/26 00:45:10;;;;;;;25.02;12.50;;;;;;;0.17;77.92;96963.53;4892938;29;20083;-82
2021/01/26 00:47:36;;;;;;;23.48;10.85;;;;;;;0.06;78.65;96948.66;4876585;29;20437;-81
2021/01/26 00:50:04;;;;;;;24.48;10.98;;;;;;;-0.05;78.36;96954.28;4862212;29;20120;-81
2021/01/26 00:52:30;;;;;;;25.30;11.55;;;;;;;0.07;78.10;96952.81;4878548;29;20040;-81
2021/01/26 00:54:58;;;;;;;24.05;11.68;;;;;;;-0.10;78.64;96949.69;4899413;29;20540;-81
2021/01/26 00:57:26;;;;;;;25.00;10.95;;;;;;;0.04;79.06;96948.06;4879418;29;20127;-81
2021/01/26 00:59:52;;;;;;;25.85;12.00;;;;;;;0.07;78.82;96945.13;4884566;29;20036;-81
2021/01/26 01:02:19;;;;;;;26.95;12.43;;;;;;;0.13;79.03;96949.50;4887448;29;20406;-81
2021/01/26 01:04:46;;;;;;;30.00;12.70;;;;;;;0.11;78.44;96954.03;4911033;29;20069;-81
2021/01/26 01:07:12;;;;;;;28.70;11.57;;;;;;;0.14;78.68;96960.56;4911264;29;20043;-81
2021/01/26 01:09:38;;;;;;;23.83;10.48;;;;;;;0.22;78.80;96962.97;4896387;29;20537;-81
2021/01/26 01:12:05;;;;;;;29.05;11.98;;;;;;;0.30;78.73;96964.63;4895531;29;20338;-81
2021/01/26 01:14:31;;;;;;;27.52;12.40;;;;;;;0.29;78.45;96958.72;4886508;29;20350;-81
2021/01/26 01:16:57;;;;;;;27.52;11.98;;;;;;;0.33;78.60;96967.59;4896078;29;20500;-81
2021/01/26 01:19:25;;;;;;;29.58;12.57;;;;;;;0.25;78.56;96965.16;4879854;29;20051;-81
2021/01/26 01:21:51;;;;;;;26.00;10.57;;;;;;;0.35;78.28;96970.00;4895231;29;20039;-81
2021/01/26 01:24:20;;;;;;;24.77;11.75;;;;;;;0.25;78.82;96972.84;4894845;29;20028;-81
2021/01/26 01:26:46;;;;;;;29.58;13.13;;;;;;;0.32;78.81;96971.13;4895618;29;20059;-81
2021/01/26 01:29:13;;;;;;;25.33;11.18;;;;;;;0.48;78.07;96982.09;4895483;29;20112;-82
2021/01/26 01:31:40;;;;;;;27.17;11.65;;;;;;;0.23;79.40;96976.59;4895762;29;20526;-82
2021/01/26 01:34:07;;;;;;;25.67;12.18;;;;;;;0.38;78.57;96974.75;4916491;29;20036;-81
2021/01/26 01:36:38;;;;;;;25.15;11.10;;;;;;;0.30;79.05;96988.47;4894914;29;20532;-81
2021/01/26 01:39:06;;;;;;;23.00;10.57;;;;;;;0.36;78.97;96979.25;4897134;29;20412;-82
2021/01/26 01:41:33;;;;;;;24.75;11.40;;;;;;;0.53;77.93;96980.59;4885329;29;20036;-82
2021/01/26 01:43:59;;;;;;;23.60;11.05;;;;;;;0.45;78.54;96988.41;4882321;29;20207;-81
2021/01/26 01:46:26;;;;;;;25.70;10.93;;;;;;;0.53;78.55;96982.34;4886322;29;20539;-81
2021/01/26 01:48:54;;;;;;;25.58;11.65;;;;;;;0.47;78.70;96983.88;4894756;29;20060;-82
2021/01/26 01:51:22;;;;;;;24.38;11.05;;;;;;;0.51;78.49;96979.97;4901854;29;20115;-81
2021/01/26 01:53:58;;;;;;;24.17;10.20;;;;;;;0.41;78.38;96982.03;4910094;29;20169;-82
2021/01/26 01:56:31;;;;;;;24.38;11.57;;;;;;;0.46;78.83;96982.28;4894054;29;20508;-82
2021/01/26 01:59:01;;;;;;;25.98;11.10;;;;;;;0.52;78.47;96981.56;4890778;29;20055;-82
2021/01/26 02:01:29;;;;;;;21.00;9.60;;;;;;;0.62;78.64;96985.56;4882634;29;20045;-82
2021/01/26 02:03:59;;;;;;;25.75;10.63;;;;;;;0.45;79.36;96967.91;4910855;23;20056;-79
2021/01/26 02:06:28;;;;;;;22.83;10.68;;;;;;;0.44;78.81;96976.56;4908720;29;20050;-79
2021/01/26 02:09:04;;;;;;;24.02;11.10;;;;;;;0.32;79.01;96978.03;4912240;29;20028;-79
2021/01/26 02:11:30;;;;;;;24.48;10.95;;;;;;;0.60;79.28;96987.53;4912892;29;20047;-79
2021/01/26 02:13:56;;;;;;;24.13;10.85;;;;;;;0.45;79.34;96970.47;4927787;29;20032;-79
2021/01/26 02:16:31;;;;;;;27.52;11.15;;;;;;;0.47;79.67;96986.44;4928916;29;20056;-78
2021/01/26 02:19:28;;;;;;;21.67;9.35;;;;;;;0.44;79.49;96991.16;4913843;29;20108;-78
2021/01/26 02:22:31;;;;;;;22.13;10.18;;;;;;;0.48;79.05;97010.28;4914208;29;20090;-78
2021/01/26 02:25:15;;;;;;;27.55;11.43;;;;;;;0.43;79.63;97010.03;4909679;29;20521;-78
2021/01/26 02:28:32;;;;;;;25.02;10.68;;;;;;;0.37;79.90;97009.78;4913119;29;20467;-78
2021/01/26 02:31:12;;;;;;;23.80;10.85;;;;;;;0.52;79.23;97014.84;4910400;29;20075;-79
2021/01/26 02:33:38;;;;;;;24.83;10.88;;;;;;;0.65;79.49;97006.50;4902121;29;20036;-78
2021/01/26 02:36:23;;;;;;;25.80;11.07;;;;;;;0.62;79.30;97012.00;4916637;29;20044;-78
2021/01/26 02:38:54;;;;;;;23.85;10.75;;;;;;;0.62;79.06;97013.75;4917853;29;20471;-79
2021/01/26 02:41:31;;;;;;;26.58;10.85;;;;;;;0.58;78.53;96999.72;4918787;29;20039;-79
2021/01/26 02:44:27;;;;;;;23.98;10.90;;;;;;;0.54;78.90;97014.69;4943553;29;20041;-79
2021/01/26 02:47:23;;;;;;;22.60;10.63;;;;;;;0.60;79.00;97023.38;4920751;29;20547;-79
2021/01/26 02:49:56;;;;;;;25.08;10.10;;;;;;;0.65;78.51;97026.19;4946156;29;20411;-78
2021/01/26 02:52:50;;;;;;;25.15;10.30;;;;;;;0.60;79.08;97031.88;4903298;29;20032;-79
2021/01/26 02:55:30;;;;;;;21.90;9.68;;;;;;;0.61;78.88;97036.00;4922371;29;20067;-79
2021/01/26 02:58:15;;;;;;;22.25;10.30;;;;;;;0.63;78.84;97034.06;4922550;29;20064;-78
2021/01/26 03:00:41;;;;;;;23.17;10.65;;;;;;;0.92;78.35;97034.88;4929674;29;20088;-79
2021/01/26 03:03:27;;;;;;;24.25;9.85;;;;;;;0.64;78.55;97029.75;4897556;29;20047;-78
2021/01/26 03:06:21;;;;;;;24.92;10.70;;;;;;;0.82;78.11;97036.97;4899249;29;20470;-79
2021/01/26 03:09:06;;;;;;;21.27;9.85;;;;;;;0.83;78.05;97036.00;4934836;29;20171;-79
2021/01/26 03:11:42;;;;;;;20.40;9.13;;;;;;;0.77;78.78;97034.16;4918540;29;20043;-78
2021/01/26 03:14:13;;;;;;;21.27;9.07;;;;;;;0.90;78.03;97036.84;4916431;29;20044;-78
2021/01/26 03:16:43;;;;;;;20.42;9.30;;;;;;;0.80;78.57;97026.91;4917880;29;20074;-78
2021/01/26 03:19:13;;;;;;;19.73;9.68;;;;;;;0.86;78.18;97025.38;4934080;29;20024;-78
2021/01/26 03:21:42;;;;;;;22.02;9.60;;;;;;;0.84;78.59;97032.44;4917253;29;20067;-78
2021/01/26 03:24:12;;;;;;;19.88;9.75;;;;;;;0.71;78.81;97028.81;4933548;29;20032;-78
2021/01/26 03:26:39;;;;;;;24.45;9.27;;;;;;;0.85;78.70;97024.56;4905487;29;20036;-79
2021/01/26 03:29:07;;;;;;;21.65;9.70;;;;;;;0.90;78.61;97044.53;4931739;29;20155;-78
2021/01/26 03:31:52;;;;;;;25.35;10.35;;;;;;;0.71;78.72;97041.63;4938639;29;20347;-78
2021/01/26 03:34:21;;;;;;;19.55;8.73;;;;;;;0.92;78.42;97047.69;4902550;29;20052;-78
2021/01/26 03:36:48;;;;;;;22.42;9.23;;;;;;;0.98;78.34;97052.09;4909152;29;20043;-78
2021/01/26 03:39:14;;;;;;;22.55;9.80;;;;;;;0.85;78.91;97047.63;4913997;29;20044;-78
2021/01/26 03:41:39;;;;;;;20.90;9.65;;;;;;;1.01;78.15;97058.59;4890576;29;20028;-79
2021/01/26 03:44:06;;;;;;;22.38;8.27;;;;;;;1.03;77.50;97064.34;4924245;29;20103;-78
2021/01/26 03:46:38;;;;;;;19.23;9.43;;;;;;;0.95;78.00;97051.69;4934044;29;20032;-78
2021/01/26 03:49:35;;;;;;;18.95;8.63;;;;;;;0.74;78.34;97056.63;4919829;29;20483;-78
2021/01/26 03:52:07;;;;;;;20.73;9.32;;;;;;;0.70;78.77;97046.94;4935529;29;20039;-78
2021/01/26 03:54:38;;;;;;;22.73;9.60;;;;;;;0.76;78.23;97051.31;4935101;29;20498;-79
2021/01/26 03:57:15;;;;;;;18.20;8.50;;;;;;;0.96;78.51;97048.13;4932740;29;20057;-79
2021/01/26 04:00:09;;;;;;;21.15;8.23;;;;;;;0.66;78.97;97055.97;4919173;29;20063;-79
2021/01/26 04:02:51;;;;;;;19.73;8.82;;;;;;;0.54;79.32;97035.16;4934511;29;20036;-78
2021/01/26 04:05:35;;;;;;;23.05;8.85;;;;;;;0.69;79.30;97053.03;4916557;29;20051;-78
2021/01/26 04:08:09;;;;;;;16.65;7.65;;;;;;;0.72;78.86;97058.59;4934273;29;20115;-78
2021/01/26 04:10:37;;;;;;;20.95;8.20;;;;;;;0.70;79.26;97059.75;4933520;29;20036;-78
2021/01/26 04:13:07;;;;;;;18.30;7.70;;;;;;;0.64;78.96;97055.38;4934315;29;20086;-79
2021/01/26 04:15:38;;;;;;;19.73;8.82;;;;;;;0.87;77.92;97068.75;4932602;29;20059;-78
2021/01/26 04:18:05;;;;;;;19.13;7.45;;;;;;;0.93;78.22;97065.47;4909679;29;20496;-78
2021/01/26 04:20:33;;;;;;;17.92;7.65;;;;;;;0.98;78.07;97066.66;4931712;29;20028;-78
2021/01/26 04:23:00;;;;;;;19.17;7.65;;;;;;;1.01;77.82;97071.41;4932263;29;20169;-79
2021/01/26 04:25:31;;;;;;;21.98;7.97;;;;;;;0.86;78.37;97080.00;4915265;29;20028;-78
2021/01/26 04:27:59;;;;;;;14.73;6.97;;;;;;;0.81;78.74;97066.94;4930427;29;20338;-78
2021/01/26 04:30:25;;;;;;;17.10;7.30;;;;;;;0.79;79.22;97063.78;4898675;29;20606;-78
2021/01/26 04:33:11;;;;;;;16.15;6.15;;;;;;;0.78;78.75;97080.13;4917093;29;20051;-78
2021/01/26 04:35:37;;;;;;;15.98;6.30;;;;;;;1.01;78.04;97067.09;4900280;29;20036;-78
2021/01/26 04:38:04;;;;;;;15.38;7.18;;;;;;;1.07;77.90;97070.69;4895645;29;20036;-78
2021/01/26 04:40:32;;;;;;;12.00;6.75;;;;;;;0.98;78.78;97072.59;4917789;29;20032;-78
2021/01/26 04:43:38;;;;;;;15.07;6.30;;;;;;;0.80;78.33;97067.13;4904750;29;20043;-78
2021/01/26 04:46:12;;;;;;;16.75;6.75;;;;;;;0.95;78.42;97078.09;4927167;29;20043;-78
2021/01/26 04:48:45;;;;;;;14.52;6.75;;;;;;;0.95;77.97;97078.09;4905076;29;20040;-78
2021/01/26 04:51:23;;;;;;;17.85;6.53;;;;;;;0.82;78.71;97089.00;4932887;29;20032;-78
2021/01/26 04:54:09;;;;;;;14.93;6.38;;;;;;;0.92;78.09;97094.63;4917409;29;20063;-78
2021/01/26 04:56:50;;;;;;;15.40;7.10;;;;;;;0.89;78.32;97087.31;4917314;29;20034;-78
2021/01/26 04:59:24;;;;;;;15.15;6.68;;;;;;;0.79;78.96;97086.84;4925914;29;20023;-79
2021/01/26 05:01:54;;;;;;;15.93;6.80;;;;;;;1.18;78.32;97095.03;4933182;29;20039;-78
2021/01/26 05:04:38;;;;;;;13.95;6.47;;;;;;;1.00;78.03;97093.72;4916443;29;20075;-78
2021/01/26 05:07:15;;;;;;;13.15;6.50;;;;;;;1.03;78.12;97090.78;4900672;29;20084;-79
2021/01/26 05:09:53;;;;;;;14.25;6.05;;;;;;;1.15;77.56;97098.78;4885700;29;20043;-78
2021/01/26 05:12:21;;;;;;;14.27;7.20;;;;;;;0.98;78.49;97085.41;4917327;29;20402;-79
2021/01/26 05:14:51;;;;;;;13.70;5.65;;;;;;;1.06;78.51;97092.97;4932942;29;20115;-78
2021/01/26 05:17:26;;;;;;;15.55;7.10;;;;;;;0.86;78.44;97087.69;4917428;29;20486;-79
2021/01/26 05:20:13;;;;;;;13.68;6.25;;;;;;;0.83;78.76;97085.47;4917269;29;20032;-79
2021/01/26 05:22:55;;;;;;;12.43;5.50;;;;;;;0.85;78.97;97096.34;4933828;29;20036;-79
2021/01/26 05:25:23;;;;;;;13.30;5.63;;;;;;;1.13;78.26;97098.13;4917089;29;20083;-79
2021/01/26 05:27:50;;;;;;;14.77;5.88;;;;;;;1.08;78.80;97095.34;4917119;29;20036;-78
2021/01/26 05:30:26;;;;;;;14.38;6.63;;;;;;;0.73;79.81;97090.91;4902267;29;20388;-79
2021/01/26 05:32:53;;;;;;;15.52;6.78;;;;;;;1.03;79.25;97095.91;4933359;29;20028;-78
2021/01/26 05:35:19;;;;;;;13.68;6.05;;;;;;;1.06;78.92;97090.41;4934428;29;20496;-78
2021/01/26 05:37:47;;;;;;;9.60;5.43;;;;;;;1.07;78.89;97094.56;4938528;29;20083;-79
2021/01/26 05:40:39;;;;;;;13.23;5.75;;;;;;;0.96;78.31;97107.88;4933987;29;20039;-78
2021/01/26 05:43:06;;;;;;;10.32;5.32;;;;;;;1.20;78.44;97116.13;4936107;29;20458;-78
2021/01/26 05:45:36;;;;;;;11.80;6.35;;;;;;;1.06;78.65;97115.25;4936885;29;20482;-79
2021/01/26 05:48:15;;;;;;;11.18;5.70;;;;;;;1.12;78.59;97125.56;4937063;29;20102;-78
2021/01/26 05:50:43;;;;;;;11.65;5.43;;;;;;;1.17;78.06;97122.44;4937587;29;20040;-79
2021/01/26 05:53:26;;;;;;;14.90;6.65;;;;;;;0.99;79.36;97124.66;4905117;29;20413;-78
2021/01/26 05:56:09;;;;;;;13.18;5.82;;;;;;;1.34;78.05;97138.38;4935039;29;20039;-78
2021/01/26 05:58:36;;;;;;;15.30;6.60;;;;;;;1.22;78.26;97135.50;4906363;29;20088;-78
2021/01/26 06:01:06;;;;;;;12.65;5.40;;;;;;;1.29;78.38;97143.25;4904405;29;20788;-78
2021/01/26 06:03:32;;;;;;;10.18;5.47;;;;;;;1.42;77.92;97145.94;4935129;28;20434;-79
2021/01/26 06:06:14;;;;;;;12.05;6.65;;;;;;;1.21;77.50;97139.03;4893071;29;20046;-79
2021/01/26 06:08:57;;;;;;;11.30;5.47;;;;;;;1.23;77.39;97154.25;4924886;29;20059;-78
2021/01/26 06:11:31;;;;;;;37.30;6.60;;;;;;;1.22;77.43;97156.03;4919358;29;20059;-78
2021/01/26 06:14:12;;;;;;;9.32;5.75;;;;;;;1.17;78.13;97157.56;4913750;29;20032;-78
2021/01/26 06:16:38;;;;;;;10.27;5.40;;;;;;;1.44;77.15;97158.53;4913628;29;20369;-79
2021/01/26 06:19:05;;;;;;;11.57;5.13;;;;;;;1.39;77.62;97156.56;4887629;29;20031;-78
2021/01/26 06:21:43;;;;;;;8.65;5.15;;;;;;;1.35;77.89;97157.09;4903323;29;20118;-78
2021/01/26 06:24:24;;;;;;;12.40;5.38;;;;;;;1.19;77.92;97160.72;4919734;29;20091;-78
2021/01/26 06:27:08;;;;;;;18.15;5.80;;;;;;;1.25;77.66;97165.91;4915557;29;20046;-78
2021/01/26 06:29:38;;;;;;;11.23;5.72;;;;;;;1.19;77.47;97153.81;4930457;29;20043;-78
2021/01/26 06:32:22;;;;;;;9.15;4.97;;;;;;;1.17;78.12;97166.03;4901705;29;20593;-78
2021/01/26 06:34:57;;;;;;;9.75;5.13;;;;;;;1.11;77.94;97169.31;4939525;29;20624;-78
2021/01/26 06:37:44;;;;;;;9.15;5.13;;;;;;;1.18;77.69;97183.00;4929274;29;20032;-78
2021/01/26 06:40:17;;;;;;;10.68;4.95;;;;;;;1.24;77.96;97192.53;4937059;29;20036;-78
2021/01/26 06:42:49;;;;;;;7.65;4.82;;;;;;;1.47;77.56;97194.09;4919468;29;20464;-78
2021/01/26 06:45:41;;;;;;;9.18;5.10;;;;;;;1.28;77.31;97183.47;4936442;29;20047;-78
2021/01/26 06:48:33;;;;;;;10.13;5.30;;;;;;;1.16;78.57;97192.66;4931161;29;20168;-79
2021/01/26 06:51:33;;;;;;;9.50;5.03;;;;;;;1.22;77.63;97197.06;4914645;29;20050;-78
2021/01/26 06:54:16;;;;;;;7.63;4.07;;;;;;;1.45;77.38;97194.28;4935580;29;20024;-78
2021/01/26 06:56:53;;;;;;;7.13;3.92;;;;;;;1.21;77.31;97192.91;4920427;29;20059;-78
2021/01/26 06:59:57;;;;;;;10.02;5.13;;;;;;;1.35;77.41;97205.84;4906748;29;20030;-78
2021/01/26 07:02:42;;;;;;;8.00;4.50;;;;;;;1.24;76.93;97207.91;4923784;29;20051;-78
2021/01/26 07:05:15;;;;;;;8.88;4.32;;;;;;;1.31;76.98;97210.53;4924822;29;20417;-78
2021/01/26 07:08:19;;;;;;;9.85;4.22;;;;;;;1.09;77.38;97209.75;4920032;29;20046;-78
2021/01/26 07:11:11;;;;;;;6.35;3.88;;;;;;;1.28;76.82;97211.69;4930363;29;20495;-79
2021/01/26 07:13:53;;;;;;;6.93;4.57;;;;;;;1.31;77.02;97224.16;4919257;29;20386;-79
2021/01/26 07:16:28;;;;;;;7.25;4.25;;;;;;;1.31;76.19;97221.59;4903685;29;20031;-79
2021/01/26 07:19:03;;;;;;;7.72;3.65;;;;;;;1.28;76.59;97224.53;4918961;29;20039;-79
2021/01/26 07:21:56;;;;;;;7.38;3.65;;;;;;;1.14;76.97;97225.38;4936030;29;20538;-78
2021/01/26 07:24:36;;;;;;;7.00;3.55;;;;;;;1.18;77.33;97221.47;4906301;29;20106;-78
2021/01/26 07:27:29;;;;;;;10.40;3.88;;;;;;;1.09;77.80;97237.97;4914153;29;20114;-79
2021/01/26 07:30:01;;;;;;;6.50;3.35;;;;;;;1.42;76.52;97232.34;4935962;29;20478;-78
2021/01/26 07:32:49;;;;;;;7.85;3.45;;;;;;;1.23;76.75;97241.44;4935108;29;20454;-78
2021/01/26 07:35:52;;;;;;;6.63;3.30;;;;;;;1.17;77.57;97234.50;4934391;29;20082;-79
2021/01/26 07:38:21;;;;;;;5.68;3.47;;;;;;;1.41;76.61;97233.34;4935618;29;20035;-78
2021/01/26 07:40:52;;;;;;;8.73;3.63;;;;;;;1.37;76.37;97250.88;4934306;29;20119;-79
2021/01/26 07:43:22;;;;;;;9.90;3.60;;;;;;;1.30;76.60;97243.09;4916706;29;20126;-79
2021/01/26 07:45:56;;;;;;;7.03;3.22;;;;;;;1.27;76.35;97246.03;4912448;29;20438;-78
2021/01/26 07:48:24;;;;;;;10.38;4.25;;;;;;;1.22;76.87;97252.69;4912240;29;20028;-78
2021/01/26 07:50:52;;;;;;;6.07;3.55;;;;;;;1.31;76.31;97254.94;4916470;29;20036;-79
2021/01/26 07:53:31;;;;;;;6.80;3.30;;;;;;;1.26;76.57;97270.09;4911835;29;20032;-79
2021/01/26 07:56:23;;;;;;;6.13;2.97;;;;;;;1.26;76.61;97267.50;4933409;29;20051;-79
2021/01/26 07:58:49;;;;;;;7.78;3.80;;;;;;;1.39;76.29;97251.47;4919230;29;20047;-79
2021/01/26 08:01:19;;;;;;;7.53;3.90;;;;;;;1.40;76.45;97265.09;4916500;29;20130;-79
2021/01/26 08:03:45;;;;;;;6.15;3.30;;;;;;;1.42;76.30;97268.25;4903359;29;20084;-79
2021/01/26 08:06:34;;;;;;;5.85;3.15;;;;;;;1.27;76.57;97266.56;4900959;29;20035;-78
2021/01/26 08:09:00;;;;;;;6.22;3.45;;;;;;;1.44;76.55;97259.41;4930768;29;20059;-78
2021/01/26 08:11:27;;;;;;;5.63;3.33;;;;;;;1.45;76.49;97262.75;4895891;29;20098;-78
2021/01/26 08:13:59;;;;;;;8.52;3.85;;;;;;;1.40;76.61;97270.22;4924899;29;20031;-79
2021/01/26 08:16:29;;;;;;;9.98;3.58;;;;;;;1.45;75.87;97265.31;4933373;29;20483;-79
2021/01/26 08:18:56;;;;;;;7.90;3.20;;;;;;;1.29;76.51;97262.03;4936812;29;20032;-79
2021/01/26 08:21:27;;;;;;;5.85;3.42;;;;;;;1.22;76.45;97268.88;4929281;29;20059;-78
2021/01/26 08:24:13;;;;;;;10.55;3.58;;;;;;;1.26;76.37;97264.94;4914034;29;20487;-79
2021/01/26 08:26:40;;;;;;;8.40;3.28;;;;;;;1.39;76.29;97269.44;4909234;29;20032;-79
2021/01/26 08:29:06;;;;;;;10.75;3.15;;;;;;;1.28;77.09;97280.94;4911548;29;20119;-78
2021/01/26 08:31:35;;;;;;;6.72;3.45;;;;;;;1.41;76.46;97287.22;4913779;29;20424;-79
2021/01/26 08:34:25;;;;;;;6.95;3.72;;;;;;;1.29;76.05;97284.31;4913643;29;20127;-79
2021/01/26 08:37:10;;;;;;;9.98;5.28;;;;;;;1.23;76.22;97293.53;4930047;29;20036;-78
2021/01/26 08:39:45;;;;;;;9.57;5.13;;;;;;;1.22;75.53;97291.16;4926370;29;20484;-79
2021/01/26 08:42:31;;;;;;;15.73;6.97;;;;;;;1.39;75.86;97294.25;4918032;29;20069;-78
2021/01/26 08:44:58;;;;;;;12.25;6.57;;;;;;;1.40;76.13;97299.22;4924146;29;20584;-78
2021/01/26 08:48:00;;;;;;;17.92;8.10;;;;;;;1.22;75.80;97302.22;4911759;29;20050;-78
2021/01/26 08:50:35;;;;;;;14.88;5.15;;;;;;;1.22;75.90;97309.13;4929944;29;20024;-78
2021/01/26 08:53:15;;;;;;;;;;;;;;;1.02;76.77;97314.00;4913954;29;20032;-78
2021/01/26 08:55:43;;;;;;;9.52;4.78;;;;;;;1.29;76.03;97310.75;4907522;29;19930;-79
2021/01/26 08:58:34;;;;;;;6.72;3.90;;;;;;;1.17;75.70;97301.97;4886427;29;20558;-79
2021/01/26 09:01:00;;;;;;;7.97;3.35;;;;;;;1.41;76.02;97318.00;4921467;29;20031;-78
2021/01/26 09:03:35;;;;;;;7.63;3.65;;;;;;;1.40;75.96;97313.81;4913524;29;20098;-79
2021/01/26 09:06:06;;;;;;;5.40;3.28;;;;;;;1.31;75.56;97308.81;4913432;29;20127;-78
2021/01/26 09:08:58;;;;;;;8.15;3.10;;;;;;;1.29;75.79;97325.38;4930985;29;20036;-78
2021/01/26 09:11:45;;;;;;;6.03;2.85;;;;;;;1.21;75.24;97330.59;4911412;29;20071;-79
2021/01/26 09:14:34;;;;;;;5.25;3.10;;;;;;;1.11;76.46;97330.88;4919657;29;20032;-79
2021/01/26 09:17:06;;;;;;;7.47;3.42;;;;;;;1.40;75.89;97334.34;4923004;29;20539;-78
2021/01/26 09:19:45;;;;;;;8.13;3.10;;;;;;;1.36;75.87;97331.34;4914725;29;20019;-79
2021/01/26 09:22:25;;;;;;;5.85;3.13;;;;;;;1.24;75.72;97332.81;4914816;29;20390;-79
2021/01/26 09:25:00;;;;;;;6.10;3.15;;;;;;;1.35;74.97;97345.16;4932101;29;20510;-78
2021/01/26 09:27:30;;;;;;;6.00;3.08;;;;;;;1.44;75.45;97338.13;4911178;29;20038;-79
2021/01/26 09:30:13;;;;;;;6.10;3.75;;;;;;;1.40;74.78;97345.41;4909116;29;20387;-79
2021/01/26 09:32:42;;;;;;;4.93;2.85;;;;;;;1.51;74.46;97349.28;4896887;29;20055;-79
2021/01/26 09:35:24;;;;;;;6.70;3.40;;;;;;;1.37;75.50;97344.97;4917328;29;20118;-78
2021/01/26 09:38:27;;;;;;;5.95;2.95;;;;;;;1.28;75.42;97350.19;4901456;29;20027;-78
2021/01/26 09:41:17;;;;;;;6.95;3.42;;;;;;;1.40;75.26;97354.88;4875256;29;20167;-78
2021/01/26 09:43:46;;;;;;;7.07;3.20;;;;;;;1.46;74.87;97349.03;4857037;29;20049;-79
2021/01/26 09:46:25;;;;;;;6.97;3.05;;;;;;;1.36;75.17;97366.47;4878904;29;20073;-79
2021/01/26 09:48:57;;;;;;;7.05;2.78;;;;;;;1.45;75.08;97355.13;4889092;29;20373;-78
2021/01/26 09:51:30;;;;;;;6.45;2.67;;;;;;;1.42;75.45;97361.44;4877998;29;20472;-78
2021/01/26 09:54:02;;;;;;;6.45;3.00;;;;;;;1.42;75.03;97355.47;4879168;29;20527;-78
2021/01/26 09:56:30;;;;;;;4.68;3.15;;;;;;;1.49;74.98;97358.91;4881133;29;20076;-79
2021/01/26 09:58:57;;;;;;;4.72;2.78;;;;;;;1.47;74.23;97358.31;4877615;29;20444;-78
2021/01/26 10:01:23;;;;;;;3.45;2.22;;;;;;;1.64;74.76;97366.56;4855908;29;20557;-78
2021/01/26 10:03:54;;;;;;;9.88;3.55;;;;;;;1.62;74.53;97365.97;4874350;29;20140;-79
2021/01/26 10:06:20;;;;;;;5.00;2.40;;;;;;;1.55;74.47;97365.88;4883413;29;20559;-78
2021/01/26 10:08:46;;;;;;;3.95;2.70;;;;;;;1.75;73.39;97366.09;4867934;29;20089;-78
2021/01/26 10:11:22;;;;;;;7.03;2.55;;;;;;;1.47;75.30;97364.25;4878295;29;20036;-79
2021/01/26 10:13:48;;;;;;;5.38;2.42;;;;;;;1.75;73.83;97373.78;4881426;29;20476;-78
2021/01/26 10:16:46;;;;;;;5.15;2.33;;;;;;;1.54;74.32;97378.91;4917069;29;20551;-79
2021/01/26 10:19:23;;;;;;;4.97;2.80;;;;;;;1.80;72.67;97392.00;4906821;29;20484;-78
2021/01/26 10:21:49;;;;;;;4.70;2.75;;;;;;;1.93;72.68;97381.06;4908075;29;20042;-79
2021/01/26 10:24:29;;;;;;;5.65;2.90;;;;;;;1.84;72.56;97390.66;4902228;29;20091;-80
2021/01/26 10:27:07;;;;;;;4.65;2.33;;;;;;;1.82;73.40;97400.31;4916270;29;20040;-82
2021/01/26 10:29:46;;;;;;;4.57;2.83;;;;;;;1.89;72.33;97405.53;4915105;29;20047;-80
2021/01/26 10:32:14;;;;;;;4.70;2.60;;;;;;;2.22;72.35;97402.47;4927748;29;20602;-79
2021/01/26 10:34:49;;;;;;;6.05;3.08;;;;;;;1.92;72.31;97399.22;4910899;29;20035;-79
2021/01/26 10:37:21;;;;;;;5.53;2.63;;;;;;;2.02;72.31;97402.28;4932358;29;20109;-79
2021/01/26 10:40:03;;;;;;;6.03;2.90;;;;;;;1.86;73.27;97395.63;4928818;29;20048;-82
2021/01/26 10:42:29;;;;;;;5.32;2.28;;;;;;;2.13;72.17;97406.16;4916558;29;20106;-79
2021/01/26 10:44:56;;;;;;;5.80;2.58;;;;;;;2.12;71.99;97410.47;4914418;29;20067;-79
2021/01/26 10:47:37;;;;;;;5.65;3.17;;;;;;;2.11;71.49;97415.78;4931214;29;20031;-79
2021/01/26 10:50:26;;;;;;;4.68;2.47;;;;;;;2.09;70.58;97418.56;4932572;29;20562;-80
2021/01/26 10:52:53;;;;;;;5.57;2.90;;;;;;;2.17;72.13;97415.06;4914229;29;20032;-80
2021/01/26 10:55:21;;;;;;;6.30;2.70;;;;;;;2.23;70.64;97420.25;4899506;29;20036;-79
2021/01/26 10:57:48;;;;;;;4.53;2.55;;;;;;;2.21;70.17;97421.41;4898970;29;20055;-79
2021/01/26 11:00:18;;;;;;;4.82;2.65;;;;;;;2.14;71.13;97420.56;4912887;29;20049;-80
2021/01/26 11:02:44;;;;;;;3.97;2.13;;;;;;;2.38;70.57;97412.47;4914133;29;20103;-80
2021/01/26 11:05:12;;;;;;;6.75;2.60;;;;;;;2.41;69.84;97417.22;4912607;29;20391;-80
2021/01/26 11:07:38;;;;;;;5.25;2.45;;;;;;;2.51;71.32;97424.63;4926302;29;20047;-80
2021/01/26 11:10:07;;;;;;;6.03;2.50;;;;;;;2.47;70.19;97415.72;4930703;29;20059;-80
2021/01/26 11:12:34;;;;;;;6.05;2.20;;;;;;;2.49;69.26;97420.66;4929017;29;20032;-80
2021/01/26 11:15:00;;;;;;;4.32;2.05;;;;;;;2.52;69.20;97428.78;4906152;29;20028;-80
2021/01/26 11:17:25;;;;;;;4.50;2.17;;;;;;;2.50;70.15;97428.19;4883570;29;20056;-80
2021/01/26 11:19:52;;;;;;;4.13;2.17;;;;;;;2.47;70.11;97430.31;4897890;29;20031;-79
2021/01/26 11:22:19;;;;;;;5.05;2.08;;;;;;;2.57;70.47;97436.75;4913345;29;20082;-80
2021/01/26 11:24:45;;;;;;;3.65;2.13;;;;;;;2.55;70.44;97445.59;4914178;29;20031;-80
2021/01/26 11:27:11;;;;;;;5.63;2.55;;;;;;;2.50;69.67;97440.22;4914331;29;20095;-80
2021/01/26 11:29:37;;;;;;;8.13;3.17;;;;;;;2.42;69.78;97441.94;4930115;29;20036;-80
2021/01/26 11:32:04;;;;;;;4.72;2.88;;;;;;;2.39;69.90;97444.09;4913103;29;20048;-79
2021/01/26 11:34:30;;;;;;;4.32;2.15;;;;;;;2.29;71.23;97429.00;4910230;29;20039;-81
2021/01/26 11:36:56;;;;;;;4.28;2.63;;;;;;;2.47;71.25;97423.41;4901302;29;20039;-81
2021/01/26 11:39:22;;;;;;;4.97;2.35;;;;;;;2.36;71.67;97427.25;4901270;29;20038;-80
2021/01/26 11:41:47;;;;;;;8.45;3.95;;;;;;;2.34;70.21;97425.88;4894693;29;20039;-80
2021/01/26 11:44:13;;;;;;;5.15;2.53;;;;;;;2.52;70.91;97443.41;4929662;29;20043;-80
2021/01/26 11:46:38;;;;;;;8.32;2.72;;;;;;;2.53;69.39;97442.44;4898535;29;20377;-82
2021/01/26 11:49:04;;;;;;;5.25;2.60;;;;;;;2.58;70.92;97429.81;4917045;29;20031;-80
2021/01/26 11:51:30;;;;;;;5.25;2.88;;;;;;;2.64;69.91;97436.78;4930941;29;20451;-80
2021/01/26 11:53:56;;;;;;;6.85;2.20;;;;;;;2.54;69.38;97441.47;4912659;29;20318;-80
2021/01/26 11:56:23;;;;;;;6.75;3.33;;;;;;;2.68;68.85;97435.44;4933300;29;20341;-79
2021/01/26 11:58:52;;;;;;;5.72;3.17;;;;;;;2.70;69.49;97438.59;4929743;29;20031;-80
2021/01/26 12:01:18;;;;;;;6.63;3.80;;;;;;;2.63;69.25;97430.06;4917576;29;20055;-80
2021/01/26 12:03:44;;;;;;;3.88;2.90;;;;;;;2.47;70.14;97430.31;4935242;29;20043;-80
2021/01/26 12:06:10;;;;;;;5.88;2.55;;;;;;;2.43;69.38;97425.56;4913063;29;20062;-80